createdAt,value
2019-01-03T00:00:16.021Z,-0.07
2019-01-03T00:01:16.080Z,-0.12
2019-01-03T00:02:16.362Z,-0.03
2019-01-03T00:03:16.627Z,-0.03
2019-01-03T00:04:15.889Z,0.00
2019-01-03T00:05:16.181Z,0.02
2019-01-03T00:06:16.448Z,-0.04
2019-01-03T00:07:16.711Z,0.00
2019-01-03T00:08:15.979Z,0.00
2019-01-03T00:09:16.244Z,0.10
2019-01-03T00:10:16.526Z,0.08
2019-01-03T00:11:16.562Z,0.08
2019-01-03T00:12:15.831Z,0.08
2019-01-03T00:13:16.097Z,-0.01
2019-01-03T00:14:16.365Z,-0.03
2019-01-03T00:15:16.634Z,0.06
2019-01-03T00:16:15.902Z,0.03
2019-01-03T00:17:16.166Z,0.05
2019-01-03T00:18:16.427Z,0.05
2019-01-03T00:19:16.699Z,0.05
2019-01-03T00:20:15.968Z,0.06
2019-01-03T00:21:16.221Z,0.03
2019-01-03T00:22:16.495Z,0.03
2019-01-03T00:23:16.757Z,0.03
2019-01-03T00:24:16.024Z,0.08
2019-01-03T00:25:16.302Z,0.05
2019-01-03T00:26:16.573Z,0.08
2019-01-03T00:27:15.846Z,0.08
2019-01-03T00:28:16.131Z,0.02
2019-01-03T00:29:16.448Z,0.03
2019-01-03T00:30:16.728Z,-0.03
2019-01-03T00:31:16.768Z,0.00
2019-01-03T00:32:16.040Z,-0.05
2019-01-03T00:33:16.297Z,-0.07
2019-01-03T00:34:16.561Z,-0.03
2019-01-03T00:35:15.876Z,-0.07
2019-01-03T00:36:16.139Z,-0.05
2019-01-03T00:37:16.408Z,-0.14
2019-01-03T00:38:16.669Z,-0.10
2019-01-03T00:39:15.939Z,-0.04
2019-01-03T00:40:16.269Z,-0.05
2019-01-03T00:41:16.297Z,-0.10
2019-01-03T00:42:16.830Z,-0.07
2019-01-03T00:43:16.090Z,-0.03
2019-01-03T00:44:16.343Z,-0.04
2019-01-03T00:45:16.616Z,-0.11
2019-01-03T00:46:15.888Z,-0.18
2019-01-03T00:47:16.172Z,-0.19
2019-01-03T00:48:16.432Z,-0.21
2019-01-03T00:49:16.689Z,-0.12
2019-01-03T00:50:15.956Z,-0.17
2019-01-03T00:51:16.000Z,-0.04
2019-01-03T00:52:16.262Z,-0.08
2019-01-03T00:53:16.533Z,-0.08
2019-01-03T00:54:15.800Z,-0.08
2019-01-03T00:55:16.064Z,-0.18
2019-01-03T00:56:16.332Z,-0.10
2019-01-03T00:57:16.592Z,-0.08
2019-01-03T00:58:15.860Z,-0.08
2019-01-03T00:59:16.126Z,-0.12
2019-01-03T01:00:16.393Z,-0.15
2019-01-03T01:01:16.447Z,-0.12
2019-01-03T01:02:16.709Z,-0.08
2019-01-03T01:03:15.968Z,-0.07
2019-01-03T01:04:16.237Z,-0.07
2019-01-03T01:05:16.500Z,-0.14
2019-01-03T01:06:16.765Z,-0.22
2019-01-03T01:07:16.029Z,-0.23
2019-01-03T01:08:16.286Z,-0.19
2019-01-03T01:09:16.552Z,-0.22
2019-01-03T01:10:15.828Z,-0.19
2019-01-03T01:11:15.876Z,-0.17
2019-01-03T01:12:16.144Z,-0.18
2019-01-03T01:13:16.412Z,-0.19
2019-01-03T01:14:16.667Z,-0.21
2019-01-03T01:15:15.936Z,-0.21
2019-01-03T01:16:16.195Z,-0.26
2019-01-03T01:17:16.456Z,-0.28
2019-01-03T01:18:16.708Z,-0.33
2019-01-03T01:19:15.986Z,-0.43
2019-01-03T01:20:16.245Z,-0.52
2019-01-03T01:21:16.298Z,-0.56
2019-01-03T01:22:16.560Z,-0.38
2019-01-03T01:23:15.823Z,-0.53
2019-01-03T01:24:16.087Z,-0.46
2019-01-03T01:25:16.349Z,-0.46
2019-01-03T01:26:16.613Z,-0.45
2019-01-03T01:27:15.876Z,-0.39
2019-01-03T01:28:16.141Z,-0.45
2019-01-03T01:29:16.402Z,-0.41
2019-01-03T01:30:16.667Z,-0.42
2019-01-03T01:31:16.720Z,-0.59
2019-01-03T01:32:15.991Z,-0.54
2019-01-03T01:33:16.251Z,-0.54
2019-01-03T01:34:16.509Z,-0.49
2019-01-03T01:35:16.785Z,-0.46
2019-01-03T01:36:16.048Z,-0.50
2019-01-03T01:37:16.618Z,-0.50
2019-01-03T01:38:15.884Z,-0.52
2019-01-03T01:39:16.147Z,-0.57
2019-01-03T01:40:16.422Z,-0.60
2019-01-03T01:41:16.510Z,-0.59
2019-01-03T01:42:16.770Z,-0.61
2019-01-03T01:43:16.038Z,-0.56
2019-01-03T01:44:16.306Z,-0.59
2019-01-03T01:45:16.569Z,-0.59
2019-01-03T01:46:15.835Z,-0.59
2019-01-03T01:47:16.113Z,-0.54
2019-01-03T01:48:16.376Z,-0.57
2019-01-03T01:49:16.647Z,-0.60
2019-01-03T01:50:15.928Z,-0.53
2019-01-03T01:51:15.958Z,-0.63
2019-01-03T01:52:16.235Z,-0.61
2019-01-03T01:53:16.503Z,-0.59
2019-01-03T01:54:16.778Z,-0.57
2019-01-03T01:55:16.059Z,-0.56
2019-01-03T01:56:16.319Z,-0.54
2019-01-03T01:57:16.586Z,-0.56
2019-01-03T01:58:15.862Z,-0.54
2019-01-03T01:59:16.117Z,-0.53
2019-01-03T02:00:16.374Z,-0.53
2019-01-03T02:01:16.436Z,-0.53
2019-01-03T02:02:16.700Z,-0.50
2019-01-03T02:03:15.968Z,-0.49
2019-01-03T02:04:16.244Z,-0.54
2019-01-03T02:05:16.516Z,-0.56
2019-01-03T02:06:16.790Z,-0.57
2019-01-03T02:07:16.061Z,-0.54
2019-01-03T02:08:16.333Z,-0.66
2019-01-03T02:09:16.592Z,-0.56
2019-01-03T02:10:15.867Z,-0.60
2019-01-03T02:11:15.918Z,-0.59
2019-01-03T02:12:16.184Z,-0.61
2019-01-03T02:13:16.442Z,-0.54
2019-01-03T02:14:16.702Z,-0.61
2019-01-03T02:15:15.980Z,-0.59
2019-01-03T02:16:16.234Z,-0.54
2019-01-03T02:17:16.512Z,-0.54
2019-01-03T02:18:16.780Z,-0.63
2019-01-03T02:19:16.060Z,-0.59
2019-01-03T02:20:16.328Z,-0.59
2019-01-03T02:21:16.472Z,-0.56
2019-01-03T02:22:16.730Z,-0.56
2019-01-03T02:23:16.002Z,-0.59
2019-01-03T02:24:16.271Z,-0.57
2019-01-03T02:25:16.560Z,-0.63
2019-01-03T02:26:15.819Z,-0.57
2019-01-03T02:27:16.087Z,-0.56
2019-01-03T02:28:16.345Z,-0.54
2019-01-03T02:29:16.602Z,-0.57
2019-01-03T02:30:15.871Z,-0.57
2019-01-03T02:31:15.904Z,-0.57
2019-01-03T02:32:16.172Z,-0.61
2019-01-03T02:33:16.448Z,-0.67
2019-01-03T02:34:16.711Z,-0.63
2019-01-03T02:35:15.992Z,-0.64
2019-01-03T02:36:16.259Z,-0.63
2019-01-03T02:37:16.525Z,-0.61
2019-01-03T02:38:15.787Z,-0.73
2019-01-03T02:39:16.042Z,-0.74
2019-01-03T02:40:16.324Z,-0.63
2019-01-03T02:41:16.371Z,-0.64
2019-01-03T02:42:16.633Z,-0.64
2019-01-03T02:43:15.890Z,-0.69
2019-01-03T02:44:16.157Z,-0.71
2019-01-03T02:45:16.435Z,-0.74
2019-01-03T02:46:16.705Z,-0.77
2019-01-03T02:47:15.984Z,-0.85
2019-01-03T02:48:16.263Z,-0.82
2019-01-03T02:49:16.539Z,-0.81
2019-01-03T02:50:15.810Z,-0.82
2019-01-03T02:51:15.867Z,-0.82
2019-01-03T02:52:16.148Z,-0.81
2019-01-03T02:53:16.410Z,-0.78
2019-01-03T02:54:16.677Z,-0.90
2019-01-03T02:55:15.956Z,-1.00
2019-01-03T02:56:16.219Z,-0.87
2019-01-03T02:57:16.519Z,-0.87
2019-01-03T02:58:16.799Z,-0.94
2019-01-03T02:59:16.070Z,-0.92
2019-01-03T03:00:16.352Z,-0.88
2019-01-03T03:01:16.382Z,-1.00
2019-01-03T03:02:16.653Z,-0.92
2019-01-03T03:03:15.932Z,-0.94
2019-01-03T03:04:16.206Z,-0.98
2019-01-03T03:05:16.461Z,-0.88
2019-01-03T03:06:16.723Z,-0.92
2019-01-03T03:07:15.986Z,-1.05
2019-01-03T03:08:16.263Z,-1.04
2019-01-03T03:09:16.534Z,-1.01
2019-01-03T03:10:15.822Z,-1.00
2019-01-03T03:11:15.844Z,-0.98
2019-01-03T03:12:16.106Z,-0.98
2019-01-03T03:13:16.366Z,-1.05
2019-01-03T03:14:16.631Z,-1.07
2019-01-03T03:15:15.893Z,-1.01
2019-01-03T03:16:16.169Z,-0.98
2019-01-03T03:17:16.449Z,-1.00
2019-01-03T03:18:16.729Z,-1.01
2019-01-03T03:19:15.986Z,-1.01
2019-01-03T03:20:16.259Z,-1.00
2019-01-03T03:21:16.521Z,-1.02
2019-01-03T03:22:15.795Z,-1.11
2019-01-03T03:23:16.054Z,-1.05
2019-01-03T03:24:16.327Z,-1.07
2019-01-03T03:25:16.604Z,-1.09
2019-01-03T03:26:16.193Z,-1.15
2019-01-03T03:27:16.478Z,-1.17
2019-01-03T03:28:16.752Z,-1.15
2019-01-03T03:29:16.024Z,-1.15
2019-01-03T03:30:16.302Z,-1.12
2019-01-03T03:31:16.358Z,-1.06
2019-01-03T03:32:16.673Z,-1.09
2019-01-03T03:33:15.960Z,-1.21
2019-01-03T03:34:16.236Z,-1.25
2019-01-03T03:35:16.516Z,-1.17
2019-01-03T03:36:16.778Z,-1.09
2019-01-03T03:37:16.044Z,-1.12
2019-01-03T03:38:16.306Z,-1.18
2019-01-03T03:39:16.593Z,-1.14
2019-01-03T03:40:15.881Z,-1.17
2019-01-03T03:41:15.930Z,-1.24
2019-01-03T03:42:16.206Z,-1.21
2019-01-03T03:43:16.467Z,-1.21
2019-01-03T03:44:16.743Z,-1.26
2019-01-03T03:45:16.026Z,-1.32
2019-01-03T03:46:16.299Z,-1.22
2019-01-03T03:47:16.561Z,-1.32
2019-01-03T03:48:15.817Z,-1.32
2019-01-03T03:49:16.078Z,-1.36
2019-01-03T03:50:16.355Z,-1.32
2019-01-03T03:51:16.404Z,-1.25
2019-01-03T03:52:16.675Z,-1.18
2019-01-03T03:53:15.940Z,-1.24
2019-01-03T03:54:16.503Z,-1.21
2019-01-03T03:55:16.772Z,-1.22
2019-01-03T03:56:16.039Z,-1.21
2019-01-03T03:57:16.311Z,-1.22
2019-01-03T03:58:16.585Z,-1.21
2019-01-03T03:59:15.861Z,-1.22
2019-01-03T04:00:16.143Z,-1.25
2019-01-03T04:01:16.187Z,-1.26
2019-01-03T04:02:16.474Z,-1.32
2019-01-03T04:03:16.749Z,-1.25
2019-01-03T04:04:16.022Z,-1.26
2019-01-03T04:05:16.290Z,-1.26
2019-01-03T04:06:16.566Z,-1.28
2019-01-03T04:07:15.843Z,-1.35
2019-01-03T04:08:16.105Z,-1.38
2019-01-03T04:09:16.375Z,-1.33
2019-01-03T04:10:16.640Z,-1.33
2019-01-03T04:11:16.698Z,-1.39
2019-01-03T04:12:15.962Z,-1.43
2019-01-03T04:13:16.237Z,-1.49
2019-01-03T04:14:16.511Z,-1.49
2019-01-03T04:15:16.781Z,-1.40
2019-01-03T04:16:16.054Z,-1.40
2019-01-03T04:17:16.322Z,-1.60
2019-01-03T04:18:16.597Z,-1.60
2019-01-03T04:19:15.863Z,-1.57
2019-01-03T04:20:16.133Z,-1.57
2019-01-03T04:21:16.174Z,-1.64
2019-01-03T04:22:16.446Z,-1.52
2019-01-03T04:23:16.706Z,-1.56
2019-01-03T04:24:15.970Z,-1.66
2019-01-03T04:25:16.245Z,-1.64
2019-01-03T04:26:16.517Z,-1.60
2019-01-03T04:27:15.793Z,-1.55
2019-01-03T04:28:16.052Z,-1.57
2019-01-03T04:29:16.323Z,-1.63
2019-01-03T04:30:16.619Z,-1.66
2019-01-03T04:31:16.696Z,-1.67
2019-01-03T04:32:15.965Z,-1.73
2019-01-03T04:33:16.232Z,-1.74
2019-01-03T04:34:16.500Z,-1.73
2019-01-03T04:35:16.777Z,-1.83
2019-01-03T04:36:16.044Z,-1.74
2019-01-03T04:37:16.310Z,-1.77
2019-01-03T04:38:16.570Z,-1.73
2019-01-03T04:39:15.843Z,-1.77
2019-01-03T04:40:16.102Z,-1.80
2019-01-03T04:41:16.154Z,-1.80
2019-01-03T04:42:16.421Z,-1.84
2019-01-03T04:43:16.731Z,-1.84
2019-01-03T04:44:15.990Z,-1.83
2019-01-03T04:45:16.263Z,-1.95
2019-01-03T04:46:16.544Z,-1.90
2019-01-03T04:47:15.805Z,-1.85
2019-01-03T04:48:16.065Z,-1.81
2019-01-03T04:49:16.337Z,-1.91
2019-01-03T04:50:16.616Z,-1.94
2019-01-03T04:51:16.677Z,-1.88
2019-01-03T04:52:15.950Z,-1.91
2019-01-03T04:53:16.217Z,-1.98
2019-01-03T04:54:16.504Z,-1.98
2019-01-03T04:55:16.778Z,-1.97
2019-01-03T04:56:16.058Z,-2.01
2019-01-03T04:57:16.331Z,-2.01
2019-01-03T04:58:16.609Z,-2.02
2019-01-03T04:59:15.876Z,-1.99
2019-01-03T05:00:16.151Z,-1.94
2019-01-03T05:01:16.208Z,-1.99
2019-01-03T05:02:16.480Z,-1.95
2019-01-03T05:03:16.748Z,-1.94
2019-01-03T05:04:16.012Z,-1.94
2019-01-03T05:05:16.328Z,-2.01
2019-01-03T05:06:16.605Z,-1.97
2019-01-03T05:07:15.881Z,-1.95
2019-01-03T05:08:16.176Z,-2.06
2019-01-03T05:09:16.459Z,-2.02
2019-01-03T05:10:16.732Z,-2.06
2019-01-03T05:11:16.781Z,-2.11
2019-01-03T05:12:16.069Z,-2.15
2019-01-03T05:13:16.338Z,-2.18
2019-01-03T05:14:16.637Z,-2.14
2019-01-03T05:15:15.912Z,-2.06
2019-01-03T05:16:16.190Z,-2.04
2019-01-03T05:17:16.465Z,-2.02
2019-01-03T05:18:16.744Z,-2.05
2019-01-03T05:19:16.004Z,-2.18
2019-01-03T05:20:16.295Z,-2.14
2019-01-03T05:21:16.322Z,-2.19
2019-01-03T05:22:16.586Z,-2.19
2019-01-03T05:23:15.849Z,-2.25
2019-01-03T05:24:16.115Z,-2.27
2019-01-03T05:25:16.395Z,-2.22
2019-01-03T05:26:16.673Z,-2.23
2019-01-03T05:27:15.949Z,-2.23
2019-01-03T05:28:16.227Z,-2.36
2019-01-03T05:29:16.498Z,-2.32
2019-01-03T05:30:18.319Z,-2.33
2019-01-03T05:31:15.809Z,-2.27
2019-01-03T05:32:16.074Z,-2.25
2019-01-03T05:33:16.333Z,-2.25
2019-01-03T05:34:16.602Z,-2.21
2019-01-03T05:35:15.889Z,-2.18
2019-01-03T05:36:16.159Z,-2.19
2019-01-03T05:37:16.506Z,-2.22
2019-01-03T05:38:15.786Z,-2.22
2019-01-03T05:39:16.067Z,-2.22
2019-01-03T05:40:16.361Z,-2.25
2019-01-03T05:41:16.381Z,-2.22
2019-01-03T05:42:16.655Z,-2.26
2019-01-03T05:43:15.949Z,-2.15
2019-01-03T05:44:16.208Z,-2.21
2019-01-03T05:45:16.494Z,-2.23
2019-01-03T05:46:16.781Z,-2.26
2019-01-03T05:47:16.053Z,-2.29
2019-01-03T05:48:16.326Z,-2.31
2019-01-03T05:49:16.587Z,-2.29
2019-01-03T05:50:15.849Z,-2.22
2019-01-03T05:51:15.895Z,-2.23
2019-01-03T05:52:16.175Z,-2.29
2019-01-03T05:53:16.452Z,-2.27
2019-01-03T05:54:16.723Z,-2.36
2019-01-03T05:55:16.010Z,-2.36
2019-01-03T05:56:16.278Z,-2.36
2019-01-03T05:57:16.553Z,-2.39
2019-01-03T05:58:15.821Z,-2.36
2019-01-03T05:59:16.099Z,-2.33
2019-01-03T06:00:16.394Z,-2.26
2019-01-03T06:01:16.428Z,-2.33
2019-01-03T06:02:16.697Z,-2.32
2019-01-03T06:03:15.960Z,-2.26
2019-01-03T06:04:16.232Z,-2.25
2019-01-03T06:05:16.508Z,-2.31
2019-01-03T06:06:16.775Z,-2.36
2019-01-03T06:07:16.040Z,-2.38
2019-01-03T06:08:16.303Z,-2.23
2019-01-03T06:09:16.571Z,-2.27
2019-01-03T06:10:15.858Z,-2.32
2019-01-03T06:11:15.892Z,-2.27
2019-01-03T06:12:16.154Z,-2.33
2019-01-03T06:13:16.432Z,-2.35
2019-01-03T06:14:16.692Z,-2.27
2019-01-03T06:15:15.963Z,-2.31
2019-01-03T06:16:16.226Z,-2.35
2019-01-03T06:17:16.500Z,-2.35
2019-01-03T06:18:16.773Z,-2.38
2019-01-03T06:19:16.040Z,-2.48
2019-01-03T06:20:16.313Z,-2.45
2019-01-03T06:21:16.361Z,-2.39
2019-01-03T06:22:16.624Z,-2.38
2019-01-03T06:23:15.880Z,-2.36
2019-01-03T06:24:16.151Z,-2.32
2019-01-03T06:25:16.434Z,-2.35
2019-01-03T06:26:16.707Z,-2.38
2019-01-03T06:27:15.975Z,-2.38
2019-01-03T06:28:16.233Z,-2.38
2019-01-03T06:29:16.512Z,-2.38
2019-01-03T06:30:16.790Z,-2.42
2019-01-03T06:31:15.827Z,-2.43
2019-01-03T06:32:16.099Z,-2.50
2019-01-03T06:33:16.353Z,-2.52
2019-01-03T06:34:16.619Z,-2.45
2019-01-03T06:35:16.273Z,-2.50
2019-01-03T06:36:16.576Z,-2.50
2019-01-03T06:37:15.849Z,-2.45
2019-01-03T06:38:16.112Z,-2.45
2019-01-03T06:39:16.375Z,-2.39
2019-01-03T06:40:16.644Z,-2.42
2019-01-03T06:41:16.705Z,-2.43
2019-01-03T06:42:15.969Z,-2.42
2019-01-03T06:43:16.229Z,-2.38
2019-01-03T06:44:16.489Z,-2.36
2019-01-03T06:45:16.766Z,-2.41
2019-01-03T06:46:16.028Z,-2.36
2019-01-03T06:47:16.286Z,-2.27
2019-01-03T06:48:20.022Z,-2.33
2019-01-03T06:49:16.562Z,-2.45
2019-01-03T06:50:15.839Z,-2.35
2019-01-03T06:51:15.883Z,-2.33
2019-01-03T06:52:16.151Z,-2.36
2019-01-03T06:53:16.414Z,-2.36
2019-01-03T06:54:16.676Z,-2.32
2019-01-03T06:55:15.932Z,-2.29
2019-01-03T06:56:16.191Z,-2.38
2019-01-03T06:57:16.460Z,-2.38
2019-01-03T06:58:16.725Z,-2.33
2019-01-03T06:59:16.064Z,-2.38
2019-01-03T07:00:16.357Z,-2.39
2019-01-03T07:01:16.403Z,-2.43
2019-01-03T07:02:16.667Z,-2.43
2019-01-03T07:03:15.932Z,-2.32
2019-01-03T07:04:16.197Z,-2.41
2019-01-03T07:05:16.459Z,-2.45
2019-01-03T07:06:16.742Z,-2.43
2019-01-03T07:07:16.270Z,-2.48
2019-01-03T07:08:16.535Z,-2.50
2019-01-03T07:09:15.812Z,-2.50
2019-01-03T07:10:16.081Z,-2.56
2019-01-03T07:11:21.964Z,-2.50
2019-01-03T07:12:16.469Z,-2.46
2019-01-03T07:13:16.733Z,-2.52
2019-01-03T07:14:16.001Z,-2.45
2019-01-03T07:15:16.266Z,-2.52
2019-01-03T07:16:16.541Z,-2.53
2019-01-03T07:17:15.810Z,-2.50
2019-01-03T07:18:16.079Z,-2.50
2019-01-03T07:19:16.336Z,-2.59
2019-01-03T07:20:16.605Z,-2.53
2019-01-03T07:21:16.657Z,-2.52
2019-01-03T07:22:15.926Z,-2.49
2019-01-03T07:23:16.185Z,-2.56
2019-01-03T07:24:16.463Z,-2.56
2019-01-03T07:25:16.731Z,-2.57
2019-01-03T07:26:15.994Z,-2.57
2019-01-03T07:27:16.253Z,-2.62
2019-01-03T07:28:16.522Z,-2.67
2019-01-03T07:29:15.794Z,-2.64
2019-01-03T07:30:16.086Z,-2.60
2019-01-03T07:31:16.111Z,-2.50
2019-01-03T07:32:16.381Z,-2.52
2019-01-03T07:33:16.652Z,-2.56
2019-01-03T07:34:15.913Z,-2.56
2019-01-03T07:35:16.171Z,-2.53
2019-01-03T07:36:16.433Z,-2.66
2019-01-03T07:37:17.013Z,-2.69
2019-01-03T07:38:16.282Z,-2.57
2019-01-03T07:39:16.549Z,-2.53
2019-01-03T07:40:15.832Z,-2.59
2019-01-03T07:41:15.852Z,-2.64
2019-01-03T07:42:16.121Z,-2.64
2019-01-03T07:43:16.388Z,-2.64
2019-01-03T07:44:16.655Z,-2.71
2019-01-03T07:45:15.922Z,-2.66
2019-01-03T07:46:16.178Z,-2.67
2019-01-03T07:47:16.437Z,-2.71
2019-01-03T07:48:16.715Z,-2.73
2019-01-03T07:49:15.977Z,-2.73
2019-01-03T07:50:16.271Z,-2.71
2019-01-03T07:51:16.293Z,-2.67
2019-01-03T07:52:16.572Z,-2.69
2019-01-03T07:53:15.831Z,-2.73
2019-01-03T07:54:16.102Z,-2.71
2019-01-03T07:55:16.385Z,-2.77
2019-01-03T07:56:16.657Z,-2.80
2019-01-03T07:57:15.925Z,-2.80
2019-01-03T07:58:16.202Z,-2.82
2019-01-03T07:59:16.476Z,-2.84
2019-01-03T08:00:16.771Z,-2.90
2019-01-03T08:01:15.820Z,-2.92
2019-01-03T08:02:16.099Z,-2.95
2019-01-03T08:03:16.369Z,-2.97
2019-01-03T08:04:16.635Z,-2.98
2019-01-03T08:05:15.926Z,-3.00
2019-01-03T08:06:16.194Z,-2.98
2019-01-03T08:07:16.453Z,-3.02
2019-01-03T08:08:16.714Z,-3.04
2019-01-03T08:09:15.976Z,-3.02
2019-01-03T08:10:16.247Z,-3.04
2019-01-03T08:11:16.319Z,-3.09
2019-01-03T08:12:16.576Z,-3.08
2019-01-03T08:13:15.851Z,-3.11
2019-01-03T08:14:16.118Z,-3.07
2019-01-03T08:15:16.402Z,-3.05
2019-01-03T08:16:16.717Z,-3.09
2019-01-03T08:17:15.985Z,-3.05
2019-01-03T08:18:16.257Z,-3.09
2019-01-03T08:19:16.521Z,-3.05
2019-01-03T08:20:15.792Z,-3.08
2019-01-03T08:21:15.853Z,-3.09
2019-01-03T08:22:16.129Z,-3.05
2019-01-03T08:23:16.394Z,-3.09
2019-01-03T08:24:16.658Z,-3.07
2019-01-03T08:25:15.919Z,-3.01
2019-01-03T08:26:16.192Z,-3.01
2019-01-03T08:27:16.467Z,-2.98
2019-01-03T08:28:16.735Z,-2.98
2019-01-03T08:29:16.006Z,-2.90
2019-01-03T08:30:16.289Z,-2.84
2019-01-03T08:31:16.308Z,-2.84
2019-01-03T08:32:16.578Z,-2.82
2019-01-03T08:33:15.836Z,-2.80
2019-01-03T08:34:16.092Z,-2.80
2019-01-03T08:35:16.357Z,-2.82
2019-01-03T08:36:16.620Z,-2.80
2019-01-03T08:37:15.889Z,-2.78
2019-01-03T08:38:16.163Z,-2.81
2019-01-03T08:39:16.417Z,-2.77
2019-01-03T08:40:16.687Z,-2.71
2019-01-03T08:41:16.730Z,-2.74
2019-01-03T08:42:16.000Z,-2.73
2019-01-03T08:43:16.269Z,-2.73
2019-01-03T08:44:16.531Z,-2.77
2019-01-03T08:45:15.795Z,-2.74
2019-01-03T08:46:16.058Z,-2.77
2019-01-03T08:47:16.324Z,-2.78
2019-01-03T08:48:16.600Z,-2.77
2019-01-03T08:49:15.873Z,-2.70
2019-01-03T08:50:16.150Z,-2.67
2019-01-03T08:51:16.211Z,-2.62
2019-01-03T08:52:16.487Z,-2.76
2019-01-03T08:53:16.751Z,-2.73
2019-01-03T08:54:16.012Z,-2.66
2019-01-03T08:55:16.290Z,-2.59
2019-01-03T08:56:16.558Z,-2.45
2019-01-03T08:57:15.817Z,-2.53
2019-01-03T08:58:16.089Z,-2.57
2019-01-03T08:59:16.361Z,-2.49
2019-01-03T09:00:16.619Z,-2.50
2019-01-03T09:01:16.668Z,-2.50
2019-01-03T09:02:15.928Z,-2.48
2019-01-03T09:03:16.192Z,-2.42
2019-01-03T09:04:16.456Z,-2.48
2019-01-03T09:05:16.718Z,-2.45
2019-01-03T09:06:15.988Z,-2.39
2019-01-03T09:07:16.251Z,-2.39
2019-01-03T09:08:16.523Z,-2.42
2019-01-03T09:09:16.812Z,-2.45
2019-01-03T09:10:16.100Z,-2.48
2019-01-03T09:11:16.137Z,-2.43
2019-01-03T09:12:16.412Z,-2.36
2019-01-03T09:13:17.060Z,-2.42
2019-01-03T09:14:16.332Z,-2.32
2019-01-03T09:15:16.614Z,-2.31
2019-01-03T09:16:15.893Z,-2.29
2019-01-03T09:17:16.161Z,-2.29
2019-01-03T09:18:16.419Z,-2.35
2019-01-03T09:19:16.684Z,-2.42
2019-01-03T09:20:15.949Z,-2.43
2019-01-03T09:21:15.994Z,-2.36
2019-01-03T09:22:16.265Z,-2.27
2019-01-03T09:23:16.524Z,-2.25
2019-01-03T09:24:15.787Z,-2.32
2019-01-03T09:25:16.060Z,-2.35
2019-01-03T09:26:16.328Z,-2.22
2019-01-03T09:27:16.585Z,-2.22
2019-01-03T09:28:15.848Z,-2.16
2019-01-03T09:29:16.129Z,-2.14
2019-01-03T09:30:16.405Z,-2.15
2019-01-03T09:31:16.466Z,-2.09
2019-01-03T09:32:16.730Z,-2.04
2019-01-03T09:33:16.003Z,-2.05
2019-01-03T09:34:16.265Z,-2.04
2019-01-03T09:35:16.534Z,-1.95
2019-01-03T09:36:15.795Z,-1.84
2019-01-03T09:37:16.064Z,-1.88
2019-01-03T09:38:16.330Z,-1.85
2019-01-03T09:39:16.599Z,-1.84
2019-01-03T09:40:15.879Z,-1.85
2019-01-03T09:41:15.899Z,-1.85
2019-01-03T09:42:16.166Z,-1.83
2019-01-03T09:43:16.428Z,-1.64
2019-01-03T09:44:16.968Z,-1.62
2019-01-03T09:45:16.304Z,-1.63
2019-01-03T09:46:16.674Z,-1.66
2019-01-03T09:47:15.959Z,-1.59
2019-01-03T09:48:16.280Z,-1.52
2019-01-03T09:49:16.625Z,-1.50
2019-01-03T09:50:15.919Z,-1.47
2019-01-03T09:51:15.973Z,-1.47
2019-01-03T09:52:16.296Z,-1.39
2019-01-03T09:53:16.605Z,-1.36
2019-01-03T09:54:15.911Z,-1.38
2019-01-03T09:55:16.232Z,-1.38
2019-01-03T09:56:16.527Z,-1.40
2019-01-03T09:57:15.849Z,-1.38
2019-01-03T09:58:16.165Z,-1.40
2019-01-03T09:59:16.453Z,-1.42
2019-01-03T10:00:16.774Z,-1.46
2019-01-03T10:01:15.824Z,-1.46
2019-01-03T10:02:16.161Z,-1.39
2019-01-03T10:03:16.453Z,-1.40
2019-01-03T10:04:17.054Z,-1.52
2019-01-03T10:05:16.347Z,-1.50
2019-01-03T10:06:16.662Z,-1.15
2019-01-03T10:07:15.951Z,-1.19
2019-01-03T10:08:19.599Z,-1.14
2019-01-03T10:09:16.146Z,-0.91
2019-01-03T10:10:16.442Z,-0.94
2019-01-03T10:11:16.490Z,-1.01
2019-01-03T10:12:16.800Z,-1.11
2019-01-03T10:13:16.128Z,-1.15
2019-01-03T10:14:16.612Z,-1.11
2019-01-03T10:15:15.892Z,-0.98
2019-01-03T10:16:16.212Z,-0.95
2019-01-03T10:17:16.516Z,-0.82
2019-01-03T10:18:15.824Z,-0.77
2019-01-03T10:19:16.137Z,-0.80
2019-01-03T10:20:16.464Z,-0.69
2019-01-03T10:21:16.538Z,-0.64
2019-01-03T10:22:15.866Z,-0.69
2019-01-03T10:23:16.212Z,-0.76
2019-01-03T10:24:16.531Z,-0.67
2019-01-03T10:25:15.819Z,-0.71
2019-01-03T10:26:16.145Z,-0.59
2019-01-03T10:27:16.465Z,-0.60
2019-01-03T10:28:16.796Z,-0.66
2019-01-03T10:29:16.120Z,-0.63
2019-01-03T10:30:16.429Z,-0.57
2019-01-03T10:31:16.484Z,-0.54
2019-01-03T10:32:16.790Z,-0.45
2019-01-03T10:33:16.096Z,-0.60
2019-01-03T10:34:16.372Z,-0.66
2019-01-03T10:35:16.665Z,-0.50
2019-01-03T10:36:16.006Z,-0.42
2019-01-03T10:37:16.309Z,-0.42
2019-01-03T10:38:20.921Z,-0.41
2019-01-03T10:39:16.429Z,-0.33
2019-01-03T10:40:16.722Z,-0.36
2019-01-03T10:41:15.830Z,-0.38
2019-01-03T10:42:17.424Z,-0.33
2019-01-03T10:43:15.832Z,-0.26
2019-01-03T10:44:16.136Z,-0.26
2019-01-03T10:45:16.479Z,-0.29
2019-01-03T10:46:16.785Z,-0.26
2019-01-03T10:47:16.094Z,-0.14
2019-01-03T10:48:16.374Z,-0.08
2019-01-03T10:49:16.704Z,-0.04
2019-01-03T10:50:16.008Z,0.08
2019-01-03T10:51:16.039Z,0.02
2019-01-03T10:52:16.353Z,-0.05
2019-01-03T10:53:16.678Z,-0.10
2019-01-03T10:54:15.976Z,-0.14
2019-01-03T10:55:16.286Z,-0.14
2019-01-03T10:56:16.561Z,-0.11
2019-01-03T10:57:15.861Z,-0.11
2019-01-03T10:58:16.144Z,-0.04
2019-01-03T10:59:16.423Z,0.00
2019-01-03T11:00:16.749Z,0.08
2019-01-03T11:01:16.777Z,0.05
2019-01-03T11:02:16.070Z,0.13
2019-01-03T11:03:16.389Z,0.17
2019-01-03T11:04:16.679Z,0.22
2019-01-03T11:05:16.035Z,0.22
2019-01-03T11:06:16.661Z,0.20
2019-01-03T11:07:15.985Z,0.22
2019-01-03T11:08:16.315Z,0.20
2019-01-03T11:09:16.643Z,0.16
2019-01-03T11:10:15.956Z,0.32
2019-01-03T11:11:16.008Z,0.27
2019-01-03T11:12:16.332Z,0.16
2019-01-03T11:13:16.619Z,0.16
2019-01-03T11:14:15.959Z,0.23
2019-01-03T11:15:16.237Z,0.24
2019-01-03T11:16:16.905Z,0.22
2019-01-03T11:17:16.216Z,0.41
2019-01-03T11:18:16.530Z,0.40
2019-01-03T11:19:15.830Z,0.38
2019-01-03T11:20:16.181Z,0.44
2019-01-03T11:21:16.193Z,0.36
2019-01-03T11:22:16.494Z,0.32
2019-01-03T11:23:15.821Z,0.20
2019-01-03T11:24:16.155Z,0.26
2019-01-03T11:25:16.460Z,0.27
2019-01-03T11:26:16.743Z,0.26
2019-01-03T11:27:16.036Z,0.41
2019-01-03T11:28:16.354Z,0.34
2019-01-03T11:29:16.665Z,0.36
2019-01-03T11:30:16.030Z,0.34
2019-01-03T11:31:16.023Z,0.41
2019-01-03T11:32:16.323Z,0.40
2019-01-03T11:33:16.627Z,0.34
2019-01-03T11:34:15.942Z,0.45
2019-01-03T11:35:16.208Z,0.45
2019-01-03T11:36:16.513Z,0.53
2019-01-03T11:37:15.845Z,0.64
2019-01-03T11:38:16.122Z,0.57
2019-01-03T11:39:16.395Z,0.51
2019-01-03T11:40:16.720Z,0.32
2019-01-03T11:41:16.774Z,0.37
2019-01-03T11:42:16.102Z,0.45
2019-01-03T11:43:16.390Z,0.40
2019-01-03T11:44:16.723Z,0.33
2019-01-03T11:45:16.030Z,0.36
2019-01-03T11:46:16.328Z,0.47
2019-01-03T11:47:16.623Z,0.61
2019-01-03T11:48:15.927Z,0.64
2019-01-03T11:49:16.243Z,0.55
2019-01-03T11:50:16.571Z,0.53
2019-01-03T11:51:16.600Z,0.67
2019-01-03T11:52:15.884Z,0.55
2019-01-03T11:53:16.208Z,0.57
2019-01-03T11:54:16.523Z,0.57
2019-01-03T11:55:15.851Z,0.63
2019-01-03T11:56:16.164Z,0.50
2019-01-03T11:57:16.464Z,0.69
2019-01-03T11:58:16.795Z,0.75
2019-01-03T11:59:16.153Z,0.65
2019-01-03T12:00:16.481Z,0.75
2019-01-03T12:01:16.555Z,0.83
2019-01-03T12:02:15.829Z,0.75
2019-01-03T12:03:16.096Z,0.67
2019-01-03T12:04:16.412Z,0.63
2019-01-03T12:05:16.718Z,0.64
2019-01-03T12:06:16.030Z,0.76
2019-01-03T12:07:16.329Z,0.67
2019-01-03T12:08:16.634Z,0.83
2019-01-03T12:09:15.934Z,0.88
2019-01-03T12:10:16.242Z,1.03
2019-01-03T12:11:16.270Z,0.88
2019-01-03T12:12:16.536Z,0.89
2019-01-03T12:13:15.836Z,0.89
2019-01-03T12:14:16.150Z,0.89
2019-01-03T12:15:16.460Z,1.07
2019-01-03T12:16:16.798Z,1.07
2019-01-03T12:17:16.151Z,1.13
2019-01-03T12:18:16.439Z,1.04
2019-01-03T12:19:16.742Z,1.15
2019-01-03T12:20:16.055Z,1.13
2019-01-03T12:21:16.079Z,1.04
2019-01-03T12:22:16.380Z,0.86
2019-01-03T12:23:16.703Z,1.16
2019-01-03T12:24:16.021Z,1.15
2019-01-03T12:25:16.324Z,1.19
2019-01-03T12:26:16.614Z,1.15
2019-01-03T12:27:15.918Z,1.13
2019-01-03T12:28:16.224Z,1.13
2019-01-03T12:29:16.537Z,1.27
2019-01-03T12:30:15.849Z,1.20
2019-01-03T12:31:15.911Z,1.23
2019-01-03T12:32:16.212Z,1.18
2019-01-03T12:33:16.533Z,1.06
2019-01-03T12:34:15.801Z,1.09
2019-01-03T12:35:16.110Z,1.19
2019-01-03T12:36:16.424Z,1.20
2019-01-03T12:37:16.699Z,1.23
2019-01-03T12:38:16.001Z,1.04
2019-01-03T12:39:16.322Z,1.15
2019-01-03T12:40:16.622Z,1.03
2019-01-03T12:41:16.690Z,1.03
2019-01-03T12:42:15.995Z,1.20
2019-01-03T12:43:16.318Z,1.27
2019-01-03T12:44:16.632Z,1.12
2019-01-03T12:45:15.952Z,0.98
2019-01-03T12:46:16.271Z,1.03
2019-01-03T12:47:16.611Z,1.13
2019-01-03T12:48:15.899Z,1.16
2019-01-03T12:49:16.179Z,1.06
2019-01-03T12:50:16.498Z,0.96
2019-01-03T12:51:16.575Z,0.89
2019-01-03T12:52:15.886Z,0.92
2019-01-03T12:53:16.166Z,0.92
2019-01-03T12:54:16.486Z,1.12
2019-01-03T12:55:16.801Z,1.15
2019-01-03T12:56:16.103Z,1.00
2019-01-03T12:57:16.436Z,1.02